Sunny Isles Beach, Florida
Current Conditions -  °F | °C
As of 7:53 PM on Sunday 23 Nov 2014 (Local Time) from KHWO Reporting Station
Broken Clouds Broken Clouds  
Wind Chill: 79°   Ceiling: 3500
Heat Index: 82°   Visibility: 10mi
Dew Point: 74°   Wind: 6mph
Humidity: 84%   Direction: 150°SSE
Pressure: 29.98"   Gusts: NA
Location:  25.9339°N, 80.1467°W
Report Text: KHWO 240053Z 15005KT 10SM FEW022 SCT027 BKN035 26/23 A2998 RMK AO2 SLP150 T02610233
Loading
Personal Weather Stations






























Interactive Weather Map New forecast layout! Learn more

10-Day Weather Forecast

Advertisements
Track Severe Weather on mobile